Corona, New York
Current Conditions -  °F | °C
As of 3:51 AM on Sunday 26 Oct 2014 (Local Time) from KLGA Reporting Station
Scattered Clouds Scattered Clouds  
Wind Chill: 60°   Ceiling: Unl
Heat Index: 60°   Visibility: 10mi
Dew Point: 43°   Wind: 12mph
Humidity: 53%   Direction: 260°W
Pressure: 29.54"   Gusts: NA
Location:  40.75°N, 73.86°W
Report Text: KLGA 260751Z 26010KT 10SM FEW050 SCT110 16/06 A2954 RMK AO2 SLP004 T01560061
Loading
Personal Weather Stations






























Interactive Weather Map
Tropical Storm Tracking
New forecast layout! Learn more

10-Day Weather Forecast

Advertisements
Track Severe Weather on mobile